Time;durP1;ratioP1;P1;durP2;ratioP2;P2;SDS_P1;SDS_P2;PMS_P1;PMS_P2;Temp;Humidity;BMP_temperature;BMP_pressure;BME280_temperature;BME280_humidity;BME280_pressure;Samples;Min_cycle;Max_cycle;Signal;HPM_P1;HPM_P2
2022/04/14 00:00:34;;;;;;;17.75;13.02;;;15.20;50.60;;;;;;4881658;29;20032;-81
2022/04/14 00:03:00;;;;;;;18.58;12.75;;;14.90;50.60;;;;;;4881703;29;20027;-80
2022/04/14 00:05:26;;;;;;;18.70;12.82;;;14.70;51.10;;;;;;4882021;29;20123;-81
2022/04/14 00:07:51;;;;;;;21.30;13.20;;;14.80;51.10;;;;;;4881478;29;20048;-81
2022/04/14 00:10:17;;;;;;;17.73;12.68;;;14.90;51.10;;;;;;4898817;29;20025;-83
2022/04/14 00:12:43;;;;;;;18.40;12.93;;;14.80;52.30;;;;;;4881677;29;20040;-80
2022/04/14 00:15:11;;;;;;;17.30;12.77;;;14.70;51.30;;;;;;4881438;29;20172;-80
2022/04/14 00:17:37;;;;;;;19.92;13.23;;;14.80;51.10;;;;;;4881376;29;20032;-79
2022/04/14 00:20:08;;;;;;;15.70;12.13;;;14.10;53.50;;;;;;4881507;29;20123;-81
2022/04/14 00:22:34;;;;;;;19.13;12.73;;;13.80;54.80;;;;;;4898344;29;20543;-81
2022/04/14 00:25:00;;;;;;;17.83;12.57;;;14.10;54.10;;;;;;4881066;29;20079;-81
2022/04/14 00:27:26;;;;;;;18.20;12.68;;;14.30;52.40;;;;;;4881448;29;20029;-81
2022/04/14 00:29:52;;;;;;;19.65;12.45;;;14.60;51.50;;;;;;4898230;29;20488;-81
2022/04/14 00:32:18;;;;;;;17.80;12.55;;;14.70;50.80;;;;;;4881065;29;20465;-81
2022/04/14 00:34:44;;;;;;;18.38;12.68;;;14.50;50.80;;;;;;4881831;29;20036;-81
2022/04/14 00:37:10;;;;;;;22.52;13.15;;;14.40;51.30;;;;;;4881388;29;20119;-81
2022/04/14 00:39:37;;;;;;;18.58;12.43;;;14.40;51.50;;;;;;4881111;29;20077;-80
2022/04/14 00:42:13;;;;;;;19.50;12.43;;;14.60;51.40;;;;;;4898122;29;20080;-81
2022/04/14 00:44:39;;;;;;;17.98;12.48;;;14.50;50.80;;;;;;4881143;29;20040;-81
2022/04/14 00:47:06;;;;;;;17.20;12.48;;;14.30;51.20;;;;;;4884501;29;20108;-81
2022/04/14 00:49:32;;;;;;;18.23;11.98;;;14.40;51.30;;;;;;4884778;29;20062;-82
2022/04/14 00:52:03;;;;;;;22.55;12.57;;;14.30;51.10;;;;;;4901896;29;20025;-82
2022/04/14 00:54:30;;;;;;;19.02;12.50;;;14.20;51.00;;;;;;4885023;29;20048;-81
2022/04/14 00:57:01;;;;;;;18.05;12.73;;;14.20;51.30;;;;;;4884820;29;20025;-81
2022/04/14 00:59:28;;;;;;;18.30;12.32;;;14.20;52.00;;;;;;4884655;29;20025;-80
2022/04/14 01:01:55;;;;;;;19.27;11.65;;;14.30;51.50;;;;;;4884900;29;20025;-81
2022/04/14 01:04:21;;;;;;;18.70;11.50;;;14.20;51.00;;;;;;4885026;29;20024;-80
2022/04/14 01:06:47;;;;;;;17.23;12.57;;;14.20;51.00;;;;;;4884809;29;20098;-81
2022/04/14 01:09:19;;;;;;;18.02;12.05;;;14.30;51.00;;;;;;4884424;29;20035;-80
2022/04/14 01:11:45;;;;;;;17.88;11.90;;;14.40;51.00;;;;;;4884678;29;20484;-81
2022/04/14 01:14:25;;;;;;;17.83;11.93;;;14.50;51.10;;;;;;4884867;29;20054;-81
2022/04/14 01:16:50;;;;;;;17.95;11.60;;;14.40;50.40;;;;;;4885054;29;20035;-83
2022/04/14 01:19:16;;;;;;;17.92;11.43;;;14.40;50.60;;;;;;4901387;29;20020;-81
2022/04/14 01:21:49;;;;;;;17.95;11.52;;;14.50;50.40;;;;;;4901550;29;20043;-81
2022/04/14 01:24:14;;;;;;;15.18;11.35;;;14.40;50.40;;;;;;4901387;29;20072;-82
2022/04/14 01:26:40;;;;;;;16.30;11.23;;;14.50;50.50;;;;;;4899655;29;20029;-81
2022/04/14 01:29:18;;;;;;;16.80;11.80;;;14.50;50.80;;;;;;4884572;29;20123;-81
2022/04/14 01:31:44;;;;;;;16.25;11.60;;;14.60;51.00;;;;;;4901091;29;20032;-81
2022/04/14 01:34:09;;;;;;;17.55;11.32;;;14.40;50.30;;;;;;4901031;29;20033;-81
2022/04/14 01:36:35;;;;;;;16.27;10.90;;;14.20;50.60;;;;;;4900525;29;20112;-80
2022/04/14 01:39:01;;;;;;;15.93;10.45;;;14.20;50.80;;;;;;4884242;29;20032;-81
2022/04/14 01:41:26;;;;;;;17.95;10.90;;;14.30;50.80;;;;;;4884045;29;20027;-80
2022/04/14 01:43:52;;;;;;;17.88;10.85;;;14.30;50.60;;;;;;4899509;29;20025;-79
2022/04/14 01:46:18;;;;;;;18.27;10.88;;;14.10;51.60;;;;;;4883839;29;20411;-81
2022/04/14 01:48:43;;;;;;;19.25;11.57;;;13.90;52.50;;;;;;4900883;29;20088;-83
2022/04/14 01:51:09;;;;;;;18.33;10.85;;;13.80;53.00;;;;;;4900815;29;20035;-80
2022/04/14 01:53:35;;;;;;;15.27;10.57;;;13.70;52.40;;;;;;4883159;29;20453;-82
2022/04/14 01:56:00;;;;;;;14.40;10.50;;;13.80;53.00;;;;;;4881841;29;20029;-82
2022/04/14 01:58:26;;;;;;;17.48;11.00;;;13.80;51.80;;;;;;4880935;29;20473;-81
2022/04/14 02:00:52;;;;;;;15.13;10.20;;;13.90;51.70;;;;;;4882322;29;20025;-81
2022/04/14 02:03:17;;;;;;;15.48;9.82;;;14.00;51.50;;;;;;4865288;29;20028;-82
2022/04/14 02:05:43;;;;;;;16.42;11.05;;;14.00;51.20;;;;;;4877349;29;20366;-81
2022/04/14 02:08:09;;;;;;;17.42;10.70;;;13.50;51.90;;;;;;4865227;29;20029;-82
2022/04/14 02:10:35;;;;;;;21.58;11.75;;;13.40;52.30;;;;;;4865338;29;20144;-81
2022/04/14 02:13:01;;;;;;;16.88;11.70;;;13.60;52.90;;;;;;4865098;29;20544;-81
2022/04/14 02:15:27;;;;;;;16.88;11.00;;;13.70;53.20;;;;;;4864891;29;20072;-80
2022/04/14 02:17:52;;;;;;;15.20;11.25;;;13.80;52.20;;;;;;4864884;29;20048;-81
2022/04/14 02:20:18;;;;;;;18.35;10.85;;;13.80;53.00;;;;;;4864885;29;20033;-81
2022/04/14 02:22:44;;;;;;;16.30;10.68;;;13.70;52.10;;;;;;4881701;29;20037;-81
2022/04/14 02:25:10;;;;;;;16.60;11.60;;;13.70;51.90;;;;;;4882407;29;20531;-81
2022/04/14 02:27:36;;;;;;;17.25;11.40;;;13.70;51.90;;;;;;4864813;29;20446;-81
2022/04/14 02:30:02;;;;;;;18.17;11.55;;;13.80;51.80;;;;;;4864942;29;20042;-81
2022/04/14 02:32:28;;;;;;;17.20;10.73;;;13.90;51.30;;;;;;4872246;29;20028;-81
2022/04/14 02:34:53;;;;;;;19.88;12.57;;;13.60;52.50;;;;;;4883228;29;20209;-81
2022/04/14 02:37:57;;;;;;;18.67;12.13;;;13.60;53.10;;;;;;4883222;29;20112;-81
2022/04/14 02:40:42;;;;;;;19.55;12.15;;;13.60;52.30;;;;;;4882358;29;20037;-81
2022/04/14 02:43:08;;;;;;;20.73;12.43;;;13.70;53.10;;;;;;4883486;29;20607;-81
2022/04/14 02:45:33;;;;;;;18.83;11.13;;;13.50;51.80;;;;;;4899735;29;20131;-82
2022/04/14 02:47:59;;;;;;;16.45;11.50;;;13.60;51.70;;;;;;4883123;29;20428;-81
2022/04/14 02:50:26;;;;;;;18.23;11.27;;;13.60;51.70;;;;;;4882878;29;20028;-81
2022/04/14 02:52:54;;;;;;;18.60;11.90;;;13.60;51.30;;;;;;4883022;29;20037;-81
2022/04/14 02:55:20;;;;;;;17.65;11.52;;;13.30;51.70;;;;;;4898174;29;20381;-81
2022/04/14 02:57:48;;;;;;;18.75;12.30;;;13.30;51.80;;;;;;4899307;29;20128;-81
2022/04/14 03:00:14;;;;;;;19.98;12.90;;;13.20;52.20;;;;;;4882799;29;20032;-81
2022/04/14 03:02:41;;;;;;;20.98;11.80;;;13.30;52.50;;;;;;4864154;29;20142;-81
2022/04/14 03:05:08;;;;;;;18.30;12.32;;;13.30;53.00;;;;;;4865334;29;20029;-80
2022/04/14 03:07:34;;;;;;;17.10;12.20;;;13.40;53.10;;;;;;4882161;29;20028;-81
2022/04/14 03:10:00;;;;;;;19.60;12.57;;;13.30;54.10;;;;;;4898210;29;20531;-81
2022/04/14 03:12:26;;;;;;;17.98;11.27;;;13.10;54.60;;;;;;4882067;29;20061;-80
2022/04/14 03:14:52;;;;;;;20.85;12.85;;;13.20;53.60;;;;;;4882420;29;20068;-80
2022/04/14 03:17:18;;;;;;;21.17;12.02;;;13.10;54.20;;;;;;4899263;29;20032;-80
2022/04/14 03:19:43;;;;;;;16.42;12.00;;;13.10;54.70;;;;;;4881560;29;20119;-80
2022/04/14 03:22:09;;;;;;;15.43;10.93;;;13.20;53.90;;;;;;4899179;29;20389;-80
2022/04/14 03:24:35;;;;;;;18.48;10.98;;;13.30;53.10;;;;;;4882374;29;20060;-81
2022/04/14 03:27:00;;;;;;;17.33;11.85;;;13.30;53.40;;;;;;4882129;29;20473;-80
2022/04/14 03:29:32;;;;;;;16.55;10.90;;;13.30;54.10;;;;;;4880896;29;20028;-79
2022/04/14 03:31:58;;;;;;;17.23;11.63;;;13.30;54.10;;;;;;4898063;29;20029;-80
2022/04/14 03:34:24;;;;;;;17.80;12.30;;;13.20;54.40;;;;;;4881285;29;20087;-79
2022/04/14 03:36:49;;;;;;;19.38;11.55;;;13.30;54.30;;;;;;4898437;29;20420;-80
2022/04/14 03:39:16;;;;;;;19.85;12.38;;;13.20;52.90;;;;;;4882345;29;20384;-80
2022/04/14 03:41:41;;;;;;;19.38;12.20;;;13.30;52.80;;;;;;4881562;29;20096;-79
2022/04/14 03:44:07;;;;;;;18.10;12.10;;;13.20;52.10;;;;;;4881861;29;20430;-80
2022/04/14 03:46:38;;;;;;;17.23;12.05;;;13.20;52.50;;;;;;4881486;29;20136;-79
2022/04/14 03:49:03;;;;;;;17.80;11.10;;;13.00;52.30;;;;;;4881849;29;20076;-80
2022/04/14 03:51:29;;;;;;;18.38;12.27;;;13.10;52.90;;;;;;4881640;29;20025;-80
2022/04/14 03:54:12;;;;;;;16.73;11.70;;;12.90;53.90;;;;;;4881214;29;20040;-80
2022/04/14 03:56:38;;;;;;;20.02;12.15;;;12.70;53.00;;;;;;4913560;23;20164;-79
2022/04/14 03:59:04;;;;;;;18.98;11.25;;;12.80;53.00;;;;;;4897260;29;20301;-80
2022/04/14 04:01:29;;;;;;;17.27;11.48;;;12.80;54.20;;;;;;4881906;29;20027;-79
2022/04/14 04:03:55;;;;;;;20.13;11.05;;;13.00;53.40;;;;;;4881558;29;20020;-79
2022/04/14 04:06:21;;;;;;;20.65;12.15;;;13.00;52.40;;;;;;4881381;29;20031;-80
2022/04/14 04:11:53;;;;;;;16.67;11.57;;;13.10;52.00;;;;;;4898635;29;20172;-80
2022/04/14 04:14:19;;;;;;;18.30;12.63;;;13.00;52.90;;;;;;4881102;29;20448;-79
2022/04/14 04:16:45;;;;;;;18.08;12.23;;;13.10;52.50;;;;;;4881627;29;20472;-79
2022/04/14 04:19:11;;;;;;;16.33;12.07;;;13.20;52.40;;;;;;4880897;29;20021;-80
2022/04/14 04:21:36;;;;;;;20.60;12.55;;;13.20;53.00;;;;;;4880915;29;20492;-80
2022/04/14 04:24:02;;;;;;;20.02;12.40;;;13.20;53.60;;;;;;4881032;29;20029;-79
2022/04/14 04:26:28;;;;;;;15.00;10.60;;;13.20;52.50;;;;;;4880894;29;20036;-82
2022/04/14 04:28:54;;;;;;;17.48;11.98;;;13.30;52.20;;;;;;4898290;29;20037;-81
2022/04/14 04:31:19;;;;;;;18.52;11.30;;;13.30;53.80;;;;;;4880799;29;20029;-79
2022/04/14 04:33:45;;;;;;;20.40;12.73;;;13.30;52.50;;;;;;4898019;29;20029;-79
2022/04/14 04:36:11;;;;;;;22.23;11.90;;;13.40;52.00;;;;;;4881313;29;20060;-81
2022/04/14 04:38:37;;;;;;;18.90;12.55;;;13.30;53.30;;;;;;4880387;29;20048;-79
2022/04/14 04:41:05;;;;;;;19.63;11.10;;;13.40;53.70;;;;;;4881170;29;20488;-81
2022/04/14 04:43:51;;;;;;;17.20;11.27;;;13.50;54.00;;;;;;4881077;29;20057;-80
2022/04/14 04:46:16;;;;;;;18.58;11.27;;;13.20;53.20;;;;;;4880920;29;20404;-82
2022/04/14 04:48:42;;;;;;;25.85;14.77;;;13.00;54.00;;;;;;4881555;29;20476;-80
2022/04/14 04:51:08;;;;;;;17.83;11.30;;;12.70;55.70;;;;;;4896974;23;20033;-78
2022/04/14 04:53:33;;;;;;;16.65;11.65;;;12.90;54.50;;;;;;4899252;29;20055;-80
2022/04/14 04:55:59;;;;;;;17.38;11.40;;;13.20;53.70;;;;;;4917017;29;20086;-80
2022/04/14 04:58:25;;;;;;;20.90;12.77;;;13.60;52.90;;;;;;4917148;29;20047;-80
2022/04/14 05:00:50;;;;;;;19.02;12.35;;;13.90;52.30;;;;;;4900104;29;20372;-79
2022/04/14 05:03:31;;;;;;;20.42;12.48;;;14.00;52.40;;;;;;4899617;29;20024;-79
2022/04/14 05:06:05;;;;;;;17.90;11.77;;;14.30;51.90;;;;;;4895235;29;20512;-79
2022/04/14 05:08:34;;;;;;;18.90;11.77;;;14.60;51.30;;;;;;4896123;29;20368;-83
2022/04/14 05:11:03;;;;;;;20.80;12.63;;;14.20;51.50;;;;;;4895328;29;20480;-80
2022/04/14 05:14:26;;;;;;;21.33;14.30;;;14.20;51.90;;;;;;4899655;29;20036;-80
2022/04/14 05:17:07;;;;;;;20.55;13.63;;;14.30;51.70;;;;;;4892958;29;20048;-80
2022/04/14 05:19:33;;;;;;;19.92;12.98;;;14.30;52.40;;;;;;4916224;29;20048;-79
2022/04/14 05:24:47;;;;;;;15.48;10.38;;;14.60;51.60;;;;;;4959591;23;20115;-80
2022/04/14 05:27:35;;;;;;;17.20;10.52;;;14.80;51.40;;;;;;4899628;29;20059;-80
2022/04/14 05:30:01;;;;;;;14.48;9.10;;;14.80;51.30;;;;;;4899481;29;20131;-80
2022/04/14 05:32:26;;;;;;;13.95;9.20;;;14.70;51.40;;;;;;4901376;29;20102;-80
2022/04/14 05:34:52;;;;;;;18.20;8.85;;;14.10;52.20;;;;;;4902785;29;20083;-82
2022/04/14 05:37:18;;;;;;;12.90;8.75;;;14.10;52.60;;;;;;4902823;29;20022;-83
2022/04/14 05:43:05;;;;;;;13.93;8.93;;;14.90;51.90;;;;;;4824915;29;20036;-82
2022/04/14 05:45:59;;;;;;;14.60;9.93;;;15.50;50.90;;;;;;4823955;29;20034;-80
2022/04/14 05:48:25;;;;;;;19.15;13.00;;;15.90;49.60;;;;;;4816624;29;20038;-79
2022/04/14 05:50:51;;;;;;;15.38;10.02;;;15.50;49.00;;;;;;4816684;29;20376;-80
2022/04/14 05:53:17;;;;;;;12.40;8.23;;;15.60;49.80;;;;;;4824469;29;20035;-80
2022/04/14 05:55:47;;;;;;;13.68;9.00;;;15.40;49.40;;;;;;4824335;29;20522;-80
2022/04/14 05:58:13;;;;;;;14.75;9.10;;;15.10;51.10;;;;;;4824138;29;20439;-81
2022/04/14 06:00:40;;;;;;;14.50;8.50;;;14.70;51.90;;;;;;4823368;29;20043;-79
2022/04/14 06:03:05;;;;;;;11.35;8.60;;;15.30;50.80;;;;;;4809355;29;20030;-80
2022/04/14 06:05:32;;;;;;;13.63;8.63;;;15.20;50.80;;;;;;4824544;29;20035;-80
2022/04/14 06:07:58;;;;;;;15.55;9.43;;;15.20;50.90;;;;;;4822749;29;20030;-78
2022/04/14 06:10:26;;;;;;;14.40;8.73;;;15.80;50.30;;;;;;4822588;29;20529;-79
2022/04/14 06:12:52;;;;;;;14.70;8.70;;;16.40;49.50;;;;;;4823558;29;20402;-80
2022/04/14 06:15:18;;;;;;;13.60;8.68;;;15.90;50.10;;;;;;4823397;29;20082;-79
2022/04/14 06:17:44;;;;;;;19.67;9.50;;;15.80;51.40;;;;;;4881623;29;20033;-80
2022/04/14 06:20:11;;;;;;;17.70;9.02;;;15.90;50.00;;;;;;4882179;29;20033;-81
2022/04/14 06:22:38;;;;;;;15.50;9.52;;;15.60;50.40;;;;;;4883033;29;20057;-80
2022/04/14 06:25:05;;;;;;;18.67;8.75;;;15.70;50.80;;;;;;4883567;29;20131;-81
2022/04/14 06:27:31;;;;;;;15.93;8.60;;;15.50;50.00;;;;;;4883082;29;20123;-83
2022/04/14 06:30:38;;;;;;;14.93;9.75;;;16.20;49.80;;;;;;5091153;27;20420;-81
2022/04/14 06:33:04;;;;;;;16.33;9.52;;;16.90;49.10;;;;;;5089708;28;20035;-82
2022/04/14 06:35:31;;;;;;;22.33;8.85;;;17.80;48.30;;;;;;5089144;28;20024;-84
2022/04/14 06:37:57;;;;;;;18.27;9.68;;;18.40;47.90;;;;;;5090549;28;20044;-88
2022/04/14 06:40:23;;;;;;;21.45;9.95;;;18.90;47.30;;;;;;5089117;28;20418;-82
2022/04/14 06:42:49;;;;;;;16.50;9.60;;;19.20;46.50;;;;;;5089611;28;20028;-81
2022/04/14 06:45:16;;;;;;;21.45;9.52;;;19.40;46.40;;;;;;5089846;28;20094;-83
2022/04/14 06:47:41;;;;;;;20.85;9.77;;;19.70;46.70;;;;;;5089875;28;20028;-82
2022/04/14 06:50:08;;;;;;;19.75;10.57;;;19.90;44.80;;;;;;5089069;28;20110;-82
2022/04/14 06:52:33;;;;;;;16.27;9.93;;;20.20;45.20;;;;;;5089263;28;20025;-82
2022/04/14 06:55:00;;;;;;;17.23;10.20;;;20.20;45.40;;;;;;5089556;28;20051;-86
2022/04/14 06:57:26;;;;;;;18.23;10.82;;;18.80;46.50;;;;;;5089358;28;20032;-82
2022/04/14 06:59:51;;;;;;;18.70;10.25;;;17.80;48.60;;;;;;5088991;28;20031;-82
2022/04/14 07:02:17;;;;;;;15.68;9.10;;;18.50;48.30;;;;;;5088777;28;20024;-82
2022/04/14 07:04:43;;;;;;;19.52;9.43;;;19.80;45.10;;;;;;5088649;28;20028;-82
2022/04/14 07:07:08;;;;;;;16.00;9.35;;;20.70;44.10;;;;;;5088453;28;20383;-81
2022/04/14 07:09:34;;;;;;;17.27;8.55;;;22.40;43.70;;;;;;5088536;28;20036;-82
2022/04/14 07:12:01;;;;;;;14.07;9.10;;;24.20;41.50;;;;;;5088876;28;20052;-82
2022/04/14 07:14:28;;;;;;;21.98;8.55;;;25.30;41.20;;;;;;5088405;28;20474;-83
2022/04/14 07:16:55;;;;;;;12.02;7.43;;;26.00;39.70;;;;;;5088801;28;20024;-90
2022/04/14 07:19:52;;;;;;;11.10;7.00;;;26.40;35.90;;;;;;5088821;28;20094;-83
2022/04/14 07:22:19;;;;;;;12.60;7.53;;;25.70;38.10;;;;;;5088889;28;20036;-84
2022/04/14 07:24:49;;;;;;;12.50;8.32;;;25.70;37.20;;;;;;5088776;28;20051;-84
2022/04/14 07:27:20;;;;;;;12.40;7.75;;;25.50;35.70;;;;;;5089318;28;20072;-92
2022/04/14 07:29:46;;;;;;;14.13;8.00;;;23.80;37.50;;;;;;5088963;28;20407;-82
2022/04/14 07:32:15;;;;;;;15.00;8.07;;;21.90;40.00;;;;;;5089067;28;20028;-83
2022/04/14 07:34:41;;;;;;;12.43;8.10;;;20.60;41.00;;;;;;5089861;28;20032;-83
2022/04/14 07:37:15;;;;;;;12.55;7.60;;;20.10;42.00;;;;;;5088503;28;20020;-83
2022/04/14 07:39:41;;;;;;;13.82;7.93;;;20.20;42.60;;;;;;5088161;28;20024;-82
2022/04/14 07:42:06;;;;;;;12.90;8.70;;;20.60;42.50;;;;;;5074190;28;20039;-82
2022/04/14 07:44:32;;;;;;;14.13;9.25;;;20.90;42.90;;;;;;5074647;28;20542;-83
2022/04/14 07:46:58;;;;;;;14.02;9.25;;;22.00;41.70;;;;;;5074893;28;20036;-83
2022/04/14 07:49:23;;;;;;;13.73;8.80;;;22.10;41.60;;;;;;5074644;28;20048;-84
2022/04/14 07:51:49;;;;;;;13.07;8.18;;;22.20;41.60;;;;;;5074740;28;20360;-82
2022/04/14 07:54:15;;;;;;;16.02;8.57;;;21.00;42.50;;;;;;5074431;28;20055;-83
2022/04/14 07:56:40;;;;;;;13.30;8.70;;;21.30;42.90;;;;;;5074355;28;20029;-81
2022/04/14 07:59:06;;;;;;;13.48;8.73;;;21.50;42.80;;;;;;5074121;28;20469;-81
2022/04/14 08:01:32;;;;;;;13.38;8.82;;;22.10;43.00;;;;;;5074966;28;20032;-83
2022/04/14 08:03:57;;;;;;;14.30;8.15;;;21.60;42.50;;;;;;5074135;28;20032;-90
2022/04/14 08:06:25;;;;;;;11.77;9.15;;;22.20;43.70;;;;;;5074391;28;20029;-81
2022/04/14 08:08:51;;;;;;;14.32;9.38;;;22.60;42.30;;;;;;5074690;28;20078;-83
2022/04/14 08:11:16;;;;;;;16.20;9.35;;;22.30;40.90;;;;;;5076047;28;20025;-83
2022/04/14 08:13:42;;;;;;;15.32;8.63;;;22.20;41.00;;;;;;5074576;28;20360;-82
2022/04/14 08:16:09;;;;;;;13.30;8.02;;;22.10;40.60;;;;;;5075103;28;20056;-82
2022/04/14 08:18:39;;;;;;;12.38;7.38;;;22.90;40.80;;;;;;5073865;28;20488;-81
2022/04/14 08:21:06;;;;;;;;;;;23.50;39.40;;;;;;5074293;28;20024;-81
2022/04/14 08:23:32;;;;;;;12.48;7.32;;;24.40;40.40;;;;;;5073727;28;20002;-84
2022/04/14 08:25:59;;;;;;;12.40;6.97;;;25.10;37.00;;;;;;5073793;28;20028;-87
2022/04/14 08:28:25;;;;;;;9.57;6.65;;;25.20;38.80;;;;;;5074098;28;20031;-83
2022/04/14 08:30:54;;;;;;;10.48;7.20;;;25.10;36.80;;;;;;5072586;28;20029;-82
2022/04/14 08:33:20;;;;;;;10.40;6.85;;;25.50;36.50;;;;;;5072852;28;20475;-81
2022/04/14 08:35:46;;;;;;;8.55;5.93;;;26.00;36.10;;;;;;5073887;28;20033;-86
2022/04/14 08:38:12;;;;;;;12.27;6.93;;;26.30;35.10;;;;;;5075221;28;20073;-82
2022/04/14 08:40:40;;;;;;;10.18;6.05;;;25.80;34.30;;;;;;5074381;28;20033;-81
2022/04/14 08:43:31;;;;;;;10.05;6.13;;;25.50;34.70;;;;;;5073849;28;20024;-83
2022/04/14 08:45:58;;;;;;;12.07;6.32;;;25.20;34.80;;;;;;5053407;28;20500;-82
2022/04/14 08:48:26;;;;;;;8.13;5.65;;;25.50;34.60;;;;;;5052997;28;20021;-83
2022/04/14 08:50:53;;;;;;;11.73;6.57;;;26.50;37.00;;;;;;5071372;28;20480;-81
2022/04/14 08:53:43;;;;;;;11.73;5.63;;;27.60;34.30;;;;;;5072800;28;20455;-82
2022/04/14 08:56:11;;;;;;;9.47;5.33;;;28.00;35.20;;;;;;5078196;28;20503;-82
2022/04/14 08:59:15;;;;;;;11.23;6.07;;;28.90;34.10;;;;;;5057269;28;20039;-82
2022/04/14 09:02:34;;;;;;;8.80;5.43;;;29.80;35.50;;;;;;5064580;28;20045;-81
2022/04/14 09:05:36;;;;;;;5.97;3.33;;;30.50;34.60;;;;;;5052215;28;20064;-81
2022/04/14 09:08:02;;;;;;;12.05;4.00;;;29.90;29.20;;;;;;5038074;28;20530;-84
2022/04/14 09:14:01;;;;;;;7.85;4.10;;;28.90;30.00;;;;;;5057302;28;20399;-81
2022/04/14 09:16:32;;;;;;;6.40;4.00;;;29.80;30.10;;;;;;5038884;28;20079;-80
2022/04/14 09:19:03;;;;;;;8.75;3.83;;;31.20;30.60;;;;;;5070786;23;20136;-82
2022/04/14 09:22:24;;;;;;;;;;;31.70;29.40;;;;;;5024491;28;20033;-86
2022/04/14 09:25:14;;;;;;;7.28;3.60;;;31.80;29.20;;;;;;5031464;28;20290;-85
2022/04/14 09:27:46;;;;;;;7.65;3.83;;;32.50;29.50;;;;;;5231085;22;20077;-83
2022/04/14 09:30:17;;;;;;;7.03;3.53;;;33.40;28.90;;;;;;5068787;28;20493;-82
2022/04/14 09:32:44;;;;;;;9.18;4.00;;;33.80;29.00;;;;;;5052472;28;20379;-79
2022/04/14 09:35:20;;;;;;;10.98;4.60;;;34.40;29.20;;;;;;5052526;28;20071;-81
2022/04/14 09:37:59;;;;;;;7.55;4.20;;;33.80;28.60;;;;;;5051570;28;20020;-80
2022/04/14 09:40:47;;;;;;;8.52;3.50;;;33.40;28.50;;;;;;5052307;28;20376;-80
2022/04/14 09:43:12;;;;;;;12.10;5.10;;;35.20;29.30;;;;;;5051804;28;20025;-80
2022/04/14 09:45:47;;;;;;;9.10;4.25;;;36.20;29.60;;;;;;5052529;28;20079;-80
2022/04/14 09:48:14;;;;;;;7.63;3.80;;;35.40;29.10;;;;;;5052061;28;20029;-80
2022/04/14 09:50:43;;;;;;;11.70;5.35;;;35.40;29.90;;;;;;5051412;28;20085;-80
2022/04/14 09:53:12;;;;;;;8.45;4.63;;;36.20;29.10;;;;;;5051183;28;20145;-81
2022/04/14 09:55:40;;;;;;;6.47;3.97;;;34.50;28.80;;;;;;5051816;28;20375;-83
2022/04/14 09:58:18;;;;;;;7.18;4.50;;;33.10;28.80;;;;;;5052210;28;20090;-82
2022/04/14 10:00:54;;;;;;;8.52;4.25;;;32.60;29.80;;;;;;5051684;28;20513;-78
2022/04/14 10:03:25;;;;;;;8.35;4.70;;;33.30;30.50;;;;;;5051948;28;20032;-85
2022/04/14 10:05:56;;;;;;;8.70;4.50;;;32.90;28.90;;;;;;5053777;28;20056;-80
2022/04/14 10:08:25;;;;;;;9.20;4.47;;;32.30;30.30;;;;;;5053290;28;20017;-80
2022/04/14 10:11:08;;;;;;;8.80;4.78;;;31.60;29.20;;;;;;5052332;28;20028;-89
2022/04/14 10:13:38;;;;;;;8.68;4.63;;;31.10;29.10;;;;;;5052252;28;20053;-88
2022/04/14 10:16:05;;;;;;;6.32;4.30;;;30.20;28.50;;;;;;5053585;28;20340;-82
2022/04/14 10:18:31;;;;;;;10.35;5.30;;;30.00;29.20;;;;;;5051869;28;20028;-80
2022/04/14 10:20:57;;;;;;;8.45;4.75;;;30.50;29.70;;;;;;5051520;28;20349;-78
2022/04/14 10:23:26;;;;;;;7.75;4.45;;;31.00;29.80;;;;;;5051819;28;20467;-79
2022/04/14 10:25:54;;;;;;;6.78;3.95;;;30.90;29.20;;;;;;5051374;28;20020;-79
2022/04/14 10:28:20;;;;;;;7.75;4.20;;;31.00;29.60;;;;;;5053688;28;20363;-80
2022/04/14 10:30:57;;;;;;;5.20;3.35;;;31.40;29.10;;;;;;5055220;28;20028;-81
2022/04/14 10:33:23;;;;;;;8.85;4.07;;;31.10;28.30;;;;;;5072808;28;20032;-82
2022/04/14 10:35:50;;;;;;;8.88;4.05;;;31.30;28.60;;;;;;5053807;28;20012;-79
2022/04/14 10:38:37;;;;;;;30.30;6.32;;;32.40;30.20;;;;;;5053011;28;20028;-78
2022/04/14 10:41:13;;;;;;;7.72;3.95;;;32.10;28.80;;;;;;5053791;28;20032;-82
2022/04/14 10:46:06;;;;;;;7.88;4.20;;;31.00;29.20;;;;;;5051158;28;20041;-81
2022/04/14 10:48:38;;;;;;;9.68;4.50;;;31.40;29.70;;;;;;5052720;28;20396;-81
2022/04/14 10:51:23;;;;;;;11.88;4.35;;;32.80;29.60;;;;;;5035650;28;20041;-83
2022/04/14 10:54:06;;;;;;;9.05;3.90;;;31.50;28.70;;;;;;5030004;28;20009;-81
2022/04/14 10:56:40;;;;;;;8.45;4.10;;;30.20;29.20;;;;;;5022730;28;20039;-82
2022/04/14 10:59:14;;;;;;;12.32;3.95;;;30.40;29.40;;;;;;5022845;28;20538;-83
2022/04/14 11:01:48;;;;;;;6.38;3.80;;;30.10;28.90;;;;;;5042064;28;20021;-78
2022/04/14 11:04:41;;;;;;;9.50;4.10;;;28.50;28.80;;;;;;5040245;28;20048;-80
2022/04/14 11:07:17;;;;;;;7.22;3.92;;;26.70;29.90;;;;;;5020118;28;20025;-82
2022/04/14 11:10:04;;;;;;;8.02;3.90;;;26.00;30.80;;;;;;5015668;28;20037;-80
2022/04/14 11:12:39;;;;;;;9.15;3.78;;;25.40;30.00;;;;;;5015312;28;20108;-83
2022/04/14 11:15:06;;;;;;;7.70;3.42;;;24.50;30.10;;;;;;5032765;28;20029;-79
2022/04/14 11:17:40;;;;;;;5.82;3.58;;;24.40;30.50;;;;;;5033165;28;20029;-79
2022/04/14 11:20:12;;;;;;;9.52;3.40;;;24.50;30.10;;;;;;5055184;28;20108;-81
2022/04/14 11:23:11;;;;;;;6.15;2.95;;;24.40;30.00;;;;;;5055219;28;20094;-79
2022/04/14 11:25:46;;;;;;;7.20;3.58;;;24.30;29.00;;;;;;5054945;28;20021;-82
2022/04/14 11:28:21;;;;;;;7.18;3.42;;;24.30;29.50;;;;;;5055130;28;20029;-83
2022/04/14 11:31:08;;;;;;;5.50;3.40;;;24.30;31.10;;;;;;5055086;28;20029;-82
2022/04/14 11:33:37;;;;;;;6.50;3.42;;;24.10;30.90;;;;;;5034670;28;20032;-81
2022/04/14 11:36:10;;;;;;;5.50;3.10;;;24.50;30.80;;;;;;5054484;28;20037;-80
2022/04/14 11:38:50;;;;;;;7.43;4.20;;;24.80;30.80;;;;;;5054858;28;20055;-82
2022/04/14 11:41:43;;;;;;;5.68;3.65;;;25.10;30.10;;;;;;5054405;28;20024;-80
2022/04/14 11:44:10;;;;;;;7.93;4.30;;;25.70;31.40;;;;;;5055896;28;20372;-81
2022/04/14 11:46:38;;;;;;;5.32;3.65;;;25.30;29.90;;;;;;5037735;28;20052;-80
2022/04/14 11:49:05;;;;;;;9.73;3.50;;;25.70;29.80;;;;;;5054057;28;20039;-81
2022/04/14 11:51:31;;;;;;;5.38;3.38;;;26.10;30.10;;;;;;5053585;28;20027;-80
2022/04/14 11:53:57;;;;;;;5.75;3.35;;;25.60;29.70;;;;;;5052584;28;20021;-81
2022/04/14 11:56:26;;;;;;;6.82;3.60;;;24.30;29.80;;;;;;5052312;28;20491;-81
2022/04/14 11:58:53;;;;;;;7.37;3.83;;;24.40;30.60;;;;;;5053177;28;20029;-82
2022/04/14 12:01:19;;;;;;;9.23;3.40;;;24.50;30.60;;;;;;5053359;28;20270;-80
2022/04/14 12:03:45;;;;;;;6.47;3.72;;;24.40;30.00;;;;;;5053580;28;20078;-80
2022/04/14 12:06:16;;;;;;;5.93;3.30;;;24.60;30.50;;;;;;5053593;28;20725;-80
2022/04/14 12:08:42;;;;;;;8.13;3.85;;;25.20;30.00;;;;;;5037559;28;20017;-83
2022/04/14 12:11:18;;;;;;;6.32;3.60;;;24.70;30.80;;;;;;5055133;28;20060;-83
2022/04/14 12:13:44;;;;;;;7.43;3.70;;;24.40;30.10;;;;;;5055932;28;20027;-81
2022/04/14 12:16:11;;;;;;;10.45;3.90;;;24.10;30.90;;;;;;5053885;28;20021;-81
2022/04/14 12:18:39;;;;;;;6.13;3.55;;;24.50;30.20;;;;;;5055137;28;20032;-81
2022/04/14 12:21:05;;;;;;;6.20;3.58;;;24.20;30.10;;;;;;5053955;28;20036;-81
2022/04/14 12:23:32;;;;;;;5.85;3.60;;;24.60;30.20;;;;;;5054102;28;20029;-82
2022/04/14 12:25:59;;;;;;;10.25;3.65;;;24.40;30.40;;;;;;5053740;28;20099;-84
2022/04/14 12:28:25;;;;;;;5.38;3.50;;;24.00;29.90;;;;;;5053530;28;20021;-80
2022/04/14 12:30:51;;;;;;;5.72;3.58;;;24.30;30.60;;;;;;5053430;28;20399;-81
2022/04/14 12:33:28;;;;;;;7.95;4.00;;;25.10;31.50;;;;;;5053763;28;20025;-82
2022/04/14 12:36:09;;;;;;;5.57;3.47;;;24.90;30.90;;;;;;5053637;28;20119;-81
2022/04/14 12:38:46;;;;;;;7.57;3.60;;;24.90;30.50;;;;;;5053543;28;20025;-82
2022/04/14 12:41:22;;;;;;;5.70;3.50;;;24.60;30.70;;;;;;5053785;28;20033;-81
2022/04/14 12:43:49;;;;;;;7.68;3.60;;;24.40;29.90;;;;;;5053488;28;20033;-82
2022/04/14 12:46:24;;;;;;;9.60;4.18;;;24.10;29.80;;;;;;5036988;28;20049;-81
2022/04/14 12:49:09;;;;;;;6.85;3.83;;;23.90;30.40;;;;;;5053471;28;20021;-81
2022/04/14 12:51:36;;;;;;;7.90;3.80;;;24.20;30.00;;;;;;5053370;28;20047;-82
2022/04/14 12:54:02;;;;;;;5.75;3.70;;;24.40;30.20;;;;;;5053482;28;20498;-82
2022/04/14 12:56:29;;;;;;;5.93;3.60;;;24.90;29.40;;;;;;5053223;28;20473;-84
2022/04/14 12:59:11;;;;;;;6.15;3.90;;;25.40;30.00;;;;;;5053214;28;20056;-82
2022/04/14 13:01:54;;;;;;;7.82;3.85;;;24.70;30.00;;;;;;5053314;28;20055;-81
2022/04/14 13:04:40;;;;;;;5.25;3.58;;;24.40;30.30;;;;;;5053176;28;20036;-81